Time;durP1;ratioP1;P1;durP2;ratioP2;P2;SDS_P1;SDS_P2;PMS_P1;PMS_P2;Temp;Humidity;BMP_temperature;BMP_pressure;BME280_temperature;BME280_humidity;BME280_pressure;Samples;Min_cycle;Max_cycle;Signal;HPM_P1;HPM_P2
2021/05/12 00:01:20;;;;;;;4.62;4.43;;;;;;;11.26;81.74;100685.50;4430375;32;20073;-76
2021/05/12 00:03:45;;;;;;;3.80;3.70;;;;;;;11.25;82.43;100689.06;4419576;32;20080;-77
2021/05/12 00:06:10;;;;;;;3.95;3.75;;;;;;;10.95;82.33;100634.66;4431399;32;20864;-77
2021/05/12 00:08:36;;;;;;;4.35;4.15;;;;;;;11.16;82.88;100665.00;4431464;32;20056;-77
2021/05/12 00:11:01;;;;;;;4.00;3.80;;;;;;;11.30;82.10;100684.37;4418735;32;20692;-76
2021/05/12 00:13:27;;;;;;;3.90;3.70;;;;;;;11.15;82.62;100660.66;4417093;32;20057;-77
2021/05/12 00:15:52;;;;;;;4.00;3.80;;;;;;;10.63;82.30;100571.63;4421093;32;20087;-76
2021/05/12 00:18:21;;;;;;;4.10;3.90;;;;;;;11.26;82.22;100680.25;4422715;32;20133;-77
2021/05/12 00:20:47;;;;;;;4.10;3.90;;;;;;;11.25;82.86;100683.81;4427113;32;20396;-77
2021/05/12 00:23:25;;;;;;;3.85;3.72;;;;;;;11.22;83.20;100686.59;4418260;32;20441;-77
2021/05/12 00:25:50;;;;;;;4.20;4.00;;;;;;;11.21;82.20;100687.53;4429778;32;20500;-77
2021/05/12 00:28:16;;;;;;;4.10;3.90;;;;;;;11.18;82.63;100686.78;4421223;32;20087;-77
2021/05/12 00:30:41;;;;;;;4.05;3.87;;;;;;;11.18;82.39;100683.28;4421904;32;20624;-76
2021/05/12 00:33:06;;;;;;;3.75;3.65;;;;;;;11.11;81.93;100687.19;4419404;32;20056;-77
2021/05/12 00:35:32;;;;;;;4.10;3.90;;;;;;;11.08;83.11;100685.56;4427426;32;20095;-77
2021/05/12 00:37:57;;;;;;;4.20;4.00;;;;;;;10.84;83.17;100658.00;4424116;32;20119;-77
2021/05/12 00:40:23;;;;;;;4.10;3.90;;;;;;;11.06;82.36;100705.81;4422437;32;20065;-77
2021/05/12 00:42:48;;;;;;;3.97;3.80;;;;;;;10.77;82.06;100655.72;4431505;32;20080;-77
2021/05/12 00:45:19;;;;;;;3.97;3.78;;;;;;;10.29;81.53;100572.56;4417847;32;20249;-77
2021/05/12 00:47:48;;;;;;;4.00;3.85;;;;;;;11.07;81.70;100706.69;4430503;32;20072;-76
2021/05/12 00:50:13;;;;;;;3.85;3.72;;;;;;;10.96;81.18;100694.97;4423173;32;20719;-78
2021/05/12 00:52:39;;;;;;;4.82;4.62;;;;;;;11.04;81.96;100705.03;4419522;32;20107;-77
2021/05/12 00:55:04;;;;;;;3.80;3.70;;;;;;;11.02;81.23;100708.69;4433736;32;20079;-75
2021/05/12 00:57:30;;;;;;;4.00;3.80;;;;;;;11.05;81.57;100705.91;4414995;32;20178;-77
2021/05/12 00:59:55;;;;;;;4.37;4.18;;;;;;;11.07;81.53;100707.53;4420829;32;20079;-76
2021/05/12 01:02:21;;;;;;;3.87;3.72;;;;;;;11.10;80.35;100706.50;4429692;32;20067;-76
2021/05/12 01:04:46;;;;;;;3.92;3.75;;;;;;;11.07;80.29;100707.53;4417323;32;20099;-76
2021/05/12 01:07:11;;;;;;;4.00;3.80;;;;;;;11.08;80.67;100706.56;4421893;32;20133;-76
2021/05/12 01:09:37;;;;;;;3.83;3.72;;;;;;;11.11;79.92;100708.19;4420709;32;20076;-76
2021/05/12 01:12:03;;;;;;;4.05;3.85;;;;;;;10.25;80.42;100592.03;4431566;32;20052;-77
2021/05/12 01:14:28;;;;;;;3.60;3.50;;;;;;;11.09;79.52;100713.53;4430344;32;20064;-76
2021/05/12 01:16:54;;;;;;;4.10;3.90;;;;;;;11.08;79.97;100714.44;4421592;32;20072;-75
2021/05/12 01:19:19;;;;;;;3.70;3.60;;;;;;;10.89;79.76;100680.47;4422855;32;20284;-75
2021/05/12 01:21:45;;;;;;;4.32;3.90;;;;;;;11.10;80.00;100709.97;4420454;32;20060;-75
2021/05/12 01:24:10;;;;;;;4.00;3.80;;;;;;;11.04;78.83;100693.69;4419986;32;20115;-76
2021/05/12 01:26:35;;;;;;;4.37;4.18;;;;;;;11.08;79.67;100711.81;4420200;32;20090;-76
2021/05/12 01:29:02;;;;;;;3.70;3.60;;;;;;;11.10;79.11;100707.34;4434470;32;20558;-76
2021/05/12 01:31:35;;;;;;;4.05;3.87;;;;;;;11.16;78.83;100711.41;4420755;32;20137;-76
2021/05/12 01:34:01;;;;;;;4.10;3.90;;;;;;;11.15;78.92;100704.47;4418385;32;20545;-77
2021/05/12 01:36:26;;;;;;;3.80;3.70;;;;;;;10.04;78.72;100525.81;4433111;32;20176;-76
2021/05/12 01:38:52;;;;;;;4.50;4.30;;;;;;;10.87;79.01;100673.63;4420043;32;20127;-76
2021/05/12 01:41:18;;;;;;;3.70;3.60;;;;;;;11.02;78.51;100700.81;4424077;32;20583;-75
2021/05/12 01:43:44;;;;;;;4.60;4.40;;;;;;;11.09;78.49;100710.91;4420819;32;20079;-76
2021/05/12 01:46:09;;;;;;;4.05;3.85;;;;;;;11.11;77.72;100719.56;4429987;32;22009;-76
2021/05/12 01:48:34;;;;;;;3.50;3.40;;;;;;;11.14;77.97;100716.75;4416089;32;20068;-76
2021/05/12 01:51:01;;;;;;;4.30;4.00;;;;;;;11.21;78.72;100726.94;4432477;32;20142;-76
2021/05/12 01:53:26;;;;;;;5.07;4.78;;;;;;;11.23;77.66;100738.22;4418450;32;20084;-76
2021/05/12 01:55:52;;;;;;;3.60;3.50;;;;;;;11.22;77.33;100726.84;4429835;32;20582;-75
2021/05/12 01:58:17;;;;;;;3.85;3.65;;;;;;;11.21;77.27;100725.16;4419641;32;20182;-74
2021/05/12 02:00:44;;;;;;;4.20;4.00;;;;;;;11.22;77.94;100718.13;4414956;32;20083;-74
2021/05/12 02:03:10;;;;;;;4.15;3.95;;;;;;;11.23;77.82;100722.47;4416480;32;20141;-78
2021/05/12 02:05:37;;;;;;;4.32;4.05;;;;;;;11.22;77.28;100720.75;4430953;32;20080;-76
2021/05/12 02:08:04;;;;;;;3.75;3.60;;;;;;;11.18;78.57;100728.81;4429491;32;20510;-77
2021/05/12 02:10:29;;;;;;;4.20;4.03;;;;;;;11.01;78.26;100699.97;4422418;32;20087;-76
2021/05/12 02:12:55;;;;;;;4.22;4.03;;;;;;;11.15;78.08;100725.50;4419927;32;20072;-76
2021/05/12 02:15:20;;;;;;;4.15;3.95;;;;;;;11.12;78.34;100728.28;4434321;32;20087;-77
2021/05/12 02:17:46;;;;;;;3.80;3.70;;;;;;;11.17;78.53;100731.50;4420590;32;20068;-78
2021/05/12 02:20:12;;;;;;;4.20;4.00;;;;;;;11.16;78.17;100727.16;4420843;32;20076;-76
2021/05/12 02:22:38;;;;;;;3.85;3.67;;;;;;;11.14;78.11;100729.88;4413114;32;20064;-76
2021/05/12 02:25:04;;;;;;;4.47;4.28;;;;;;;11.16;78.22;100725.41;4417255;32;20161;-76
2021/05/12 02:27:29;;;;;;;3.70;3.60;;;;;;;11.06;78.05;100713.69;4407474;32;20122;-76
2021/05/12 02:30:00;;;;;;;3.70;3.60;;;;;;;11.14;78.73;100735.13;4419599;32;20561;-76
2021/05/12 02:32:26;;;;;;;4.12;3.92;;;;;;;11.14;78.28;100729.88;4414841;32;20068;-75
2021/05/12 02:34:51;;;;;;;4.53;4.22;;;;;;;11.13;77.81;100733.44;4425953;32;20533;-78
2021/05/12 02:37:16;;;;;;;4.40;4.20;;;;;;;11.16;78.31;100730.66;4408768;32;20087;-76
2021/05/12 02:39:42;;;;;;;3.97;3.78;;;;;;;11.16;78.43;100725.41;4432367;32;20083;-76
2021/05/12 02:42:07;;;;;;;4.40;4.20;;;;;;;10.99;77.70;100693.97;4418925;32;20562;-77
2021/05/12 02:44:32;;;;;;;4.00;3.80;;;;;;;11.19;78.02;100724.41;4419449;32;20083;-75
2021/05/12 02:46:58;;;;;;;4.25;4.05;;;;;;;10.88;77.92;100676.12;4419171;32;20091;-78
2021/05/12 02:49:23;;;;;;;3.85;3.72;;;;;;;11.20;77.71;100728.69;4420461;32;20064;-75
2021/05/12 02:51:48;;;;;;;4.25;4.05;;;;;;;11.18;77.97;100727.94;4413787;32;20876;-74
2021/05/12 02:54:14;;;;;;;4.00;3.80;;;;;;;11.18;78.17;100730.56;4417336;32;20129;-75
2021/05/12 02:56:39;;;;;;;3.95;3.75;;;;;;;11.16;77.65;100730.66;4400603;32;20069;-79
2021/05/12 02:59:04;;;;;;;3.80;3.70;;;;;;;11.17;77.95;100729.72;4411186;32;20077;-75
2021/05/12 03:01:30;;;;;;;3.70;3.60;;;;;;;11.14;78.60;100726.41;4426461;32;20091;-75
2021/05/12 03:03:55;;;;;;;4.15;3.95;;;;;;;11.15;78.54;100721.09;4426401;32;20160;-74
2021/05/12 03:06:20;;;;;;;3.80;3.70;;;;;;;11.20;77.81;100727.88;4409852;32;20060;-75
2021/05/12 03:08:46;;;;;;;4.43;4.22;;;;;;;10.93;77.67;100683.78;4434261;32;20064;-73
2021/05/12 03:11:11;;;;;;;3.72;3.62;;;;;;;11.16;78.55;100732.44;4412893;32;20069;-75
2021/05/12 03:13:37;;;;;;;3.87;3.72;;;;;;;11.14;78.39;100727.25;4426908;32;20068;-75
2021/05/12 03:16:02;;;;;;;4.03;3.83;;;;;;;11.03;78.18;100711.25;4427361;32;20088;-78
2021/05/12 03:18:27;;;;;;;3.72;3.62;;;;;;;11.15;78.80;100728.97;4421794;32;20132;-76
2021/05/12 03:20:53;;;;;;;3.97;3.78;;;;;;;11.10;77.89;100715.22;4414474;32;20075;-75
2021/05/12 03:23:18;;;;;;;3.75;3.65;;;;;;;10.72;78.67;100654.25;4412204;32;20087;-75
2021/05/12 03:25:44;;;;;;;4.37;4.18;;;;;;;10.76;79.08;100669.78;4415735;32;20572;-77
2021/05/12 03:28:09;;;;;;;3.83;3.65;;;;;;;11.05;79.01;100727.75;4430685;32;20130;-76
2021/05/12 03:30:36;;;;;;;3.70;3.60;;;;;;;11.06;78.24;100752.25;4411877;32;20092;-76
2021/05/12 03:33:02;;;;;;;4.00;3.80;;;;;;;10.83;78.73;100695.72;4419370;32;20083;-76
2021/05/12 03:35:28;;;;;;;3.65;3.55;;;;;;;11.01;78.61;100728.84;4426494;32;20069;-76
2021/05/12 03:37:53;;;;;;;3.62;3.53;;;;;;;10.99;78.40;100730.72;4402472;32;20128;-76
2021/05/12 03:40:19;;;;;;;4.00;3.80;;;;;;;10.60;79.24;100666.25;4407375;32;20065;-78
2021/05/12 03:42:44;;;;;;;4.10;3.90;;;;;;;10.95;78.47;100729.19;4425882;32;20093;-76
2021/05/12 03:45:10;;;;;;;4.00;3.80;;;;;;;10.92;79.23;100730.19;4404530;32;20104;-76
2021/05/12 03:47:35;;;;;;;3.80;3.70;;;;;;;10.92;79.16;100734.59;4413393;32;20072;-76
2021/05/12 03:50:03;;;;;;;4.22;3.95;;;;;;;10.90;78.56;100737.28;4411648;32;20068;-75
2021/05/12 03:52:28;;;;;;;3.70;3.60;;;;;;;10.56;79.06;100673.47;4427688;32;20668;-76
2021/05/12 03:54:53;;;;;;;4.12;3.95;;;;;;;10.93;78.69;100739.75;4405417;32;20077;-77
2021/05/12 03:57:20;;;;;;;3.95;3.80;;;;;;;10.92;78.38;100734.59;4404168;32;20754;-78
2021/05/12 03:59:45;;;;;;;3.92;3.75;;;;;;;10.92;79.32;100737.22;4404116;32;20076;-76
2021/05/12 04:02:10;;;;;;;3.80;3.70;;;;;;;10.11;79.23;100608.47;4416722;32;20095;-73
2021/05/12 04:04:36;;;;;;;4.00;3.80;;;;;;;10.91;78.73;100738.16;4410576;32;20650;-73
2021/05/12 04:07:01;;;;;;;4.22;4.03;;;;;;;10.93;78.79;100752.06;4403902;32;20117;-73
2021/05/12 04:09:28;;;;;;;3.60;3.50;;;;;;;10.94;79.48;100745.84;4405334;32;20056;-72
2021/05/12 04:11:54;;;;;;;3.65;3.55;;;;;;;10.88;78.62;100733.06;4399960;32;20068;-72
2021/05/12 04:14:19;;;;;;;4.10;3.90;;;;;;;10.90;79.36;100737.28;4404419;32;20079;-73
2021/05/12 04:16:47;;;;;;;3.80;3.70;;;;;;;10.94;79.48;100746.72;4403039;32;20092;-76
2021/05/12 04:19:12;;;;;;;3.78;3.67;;;;;;;10.93;79.19;100742.37;4403595;32;20137;-79
2021/05/12 04:21:38;;;;;;;4.15;3.95;;;;;;;10.91;79.20;100738.16;4404828;32;20080;-76
2021/05/12 04:24:03;;;;;;;3.67;3.58;;;;;;;10.98;79.63;100750.88;4405919;32;20060;-78
2021/05/12 04:26:29;;;;;;;3.87;3.75;;;;;;;11.02;78.58;100743.66;4406890;32;20555;-77
2021/05/12 04:28:54;;;;;;;4.10;3.90;;;;;;;11.01;78.78;100746.41;4403443;32;20080;-75
2021/05/12 04:31:19;;;;;;;3.65;3.55;;;;;;;11.08;79.30;100761.72;4409237;32;20079;-76
2021/05/12 04:33:45;;;;;;;3.90;3.78;;;;;;;11.13;79.13;100761.50;4404584;32;20080;-76
2021/05/12 04:36:10;;;;;;;3.80;3.70;;;;;;;11.16;79.02;100762.19;4406885;32;20100;-77
2021/05/12 04:38:35;;;;;;;3.60;3.50;;;;;;;11.23;77.84;100761.84;4404541;32;20094;-76
2021/05/12 04:41:01;;;;;;;4.18;3.97;;;;;;;11.53;78.64;100752.28;4403132;32;20079;-77
2021/05/12 04:43:26;;;;;;;3.85;3.65;;;;;;;11.80;76.51;100741.16;4404574;32;20076;-76
2021/05/12 04:45:52;;;;;;;3.80;3.70;;;;;;;11.90;76.59;100721.31;4405236;32;20084;-77
2021/05/12 04:48:18;;;;;;;4.20;4.00;;;;;;;12.28;74.80;100747.19;4405227;32;20088;-75
2021/05/12 04:50:43;;;;;;;4.00;3.80;;;;;;;12.00;74.18;100726.06;4406356;32;20064;-77
2021/05/12 04:53:08;;;;;;;4.50;4.25;;;;;;;12.08;74.54;100755.41;4407251;32;20080;-76
2021/05/12 04:55:34;;;;;;;4.20;4.00;;;;;;;12.01;75.40;100751.41;4412099;32;20072;-77
2021/05/12 04:57:59;;;;;;;3.85;3.75;;;;;;;11.78;74.74;100761.44;4428589;32;20071;-79
2021/05/12 05:00:25;;;;;;;4.32;4.12;;;;;;;11.78;75.12;100754.38;4420978;32;20064;-76
2021/05/12 05:02:51;;;;;;;3.90;3.80;;;;;;;11.78;74.94;100754.38;4417118;32;20975;-76
2021/05/12 05:05:17;;;;;;;4.10;3.90;;;;;;;11.62;75.20;100744.81;4429089;32;20075;-77
2021/05/12 05:07:44;;;;;;;4.30;4.10;;;;;;;11.40;76.24;100703.12;4412570;32;20111;-76
2021/05/12 05:10:10;;;;;;;3.90;3.75;;;;;;;11.74;76.30;100754.66;4429880;32;20711;-73
2021/05/12 05:12:35;;;;;;;4.25;4.05;;;;;;;11.76;75.42;100756.25;4431711;32;20143;-72
2021/05/12 05:15:01;;;;;;;4.10;3.90;;;;;;;11.74;75.98;100759.91;4438092;32;20080;-72
2021/05/12 05:17:28;;;;;;;4.10;3.90;;;;;;;11.74;76.29;100759.91;4417334;32;20082;-74
2021/05/12 05:19:53;;;;;;;4.05;3.85;;;;;;;11.44;75.52;100716.00;4425248;32;20079;-76
2021/05/12 05:22:19;;;;;;;4.10;3.90;;;;;;;11.75;76.21;100761.63;4420278;32;20573;-77
2021/05/12 05:24:44;;;;;;;4.35;4.15;;;;;;;11.73;75.71;100747.72;4417861;32;20179;-76
2021/05/12 05:27:10;;;;;;;4.12;3.92;;;;;;;11.87;76.51;100762.72;4426187;32;20052;-75
2021/05/12 05:29:36;;;;;;;4.37;4.18;;;;;;;11.95;75.64;100761.38;4433162;32;20128;-76
2021/05/12 05:32:01;;;;;;;3.90;3.80;;;;;;;11.68;76.17;100713.78;4423861;32;20081;-76
2021/05/12 05:34:26;;;;;;;4.07;3.87;;;;;;;11.69;75.60;100718.13;4423302;32;20080;-76
2021/05/12 05:36:52;;;;;;;3.87;3.78;;;;;;;12.01;75.50;100752.28;4422442;32;20069;-75
2021/05/12 05:39:17;;;;;;;4.15;3.85;;;;;;;12.06;75.99;100759.91;4440485;32;20896;-75
2021/05/12 05:41:43;;;;;;;4.00;3.80;;;;;;;12.14;74.67;100768.19;4416826;32;20084;-75
2021/05/12 05:44:08;;;;;;;4.10;3.90;;;;;;;12.11;75.05;100771.03;4427024;32;20498;-76
2021/05/12 05:46:33;;;;;;;5.00;4.18;;;;;;;12.16;75.42;100768.97;4432804;32;20099;-74
2021/05/12 05:48:59;;;;;;;4.10;3.90;;;;;;;12.02;75.18;100732.91;4423561;32;20090;-74
2021/05/12 05:51:24;;;;;;;4.57;4.30;;;;;;;12.36;75.16;100780.97;4419216;32;20076;-75
2021/05/12 05:53:50;;;;;;;4.20;4.00;;;;;;;12.23;75.42;100778.19;4430767;32;20099;-76
2021/05/12 05:56:15;;;;;;;3.80;3.70;;;;;;;12.10;75.45;100774.56;4417502;32;20079;-76
2021/05/12 05:58:40;;;;;;;4.10;3.90;;;;;;;12.19;75.41;100779.31;4416300;32;20895;-76
2021/05/12 06:01:06;;;;;;;4.43;4.22;;;;;;;12.24;74.95;100758.84;4429568;32;20077;-72
2021/05/12 06:03:31;;;;;;;4.00;3.80;;;;;;;12.26;74.01;100777.16;4430077;32;20092;-71
2021/05/12 06:05:56;;;;;;;3.80;3.70;;;;;;;12.46;73.55;100778.63;4429352;32;20095;-73
2021/05/12 06:08:24;;;;;;;4.20;4.00;;;;;;;12.49;73.96;100747.72;4418646;32;20496;-73
2021/05/12 06:10:49;;;;;;;4.20;4.00;;;;;;;12.51;73.51;100761.63;4421351;32;20065;-75
2021/05/12 06:13:15;;;;;;;4.00;3.80;;;;;;;12.71;72.92;100780.69;4419940;32;20070;-76
2021/05/12 06:15:41;;;;;;;3.80;3.70;;;;;;;12.78;71.85;100782.81;4420684;32;20052;-77
2021/05/12 06:18:07;;;;;;;3.90;3.75;;;;;;;12.72;71.54;100785.81;4416529;32;20072;-75
2021/05/12 06:20:32;;;;;;;4.03;3.83;;;;;;;12.78;71.85;100784.62;4431812;32;20072;-77
2021/05/12 06:23:02;;;;;;;3.92;3.80;;;;;;;12.59;72.56;100787.50;4414462;32;20069;-75
2021/05/12 06:25:27;;;;;;;4.05;3.85;;;;;;;12.74;72.29;100789.22;4443516;32;20060;-74
2021/05/12 06:27:52;;;;;;;4.18;4.00;;;;;;;12.70;71.84;100786.88;4416924;32;20102;-76
2021/05/12 06:30:18;;;;;;;4.20;4.00;;;;;;;12.58;71.04;100791.91;4416177;32;20072;-76
2021/05/12 06:32:43;;;;;;;4.05;3.85;;;;;;;12.37;71.74;100744.03;4427603;32;20084;-75
2021/05/12 06:35:09;;;;;;;4.10;3.90;;;;;;;12.64;71.89;100797.78;4430110;32;20064;-75
2021/05/12 06:37:34;;;;;;;3.80;3.70;;;;;;;12.63;71.14;100796.06;4429669;32;20604;-75
2021/05/12 06:40:00;;;;;;;4.15;3.95;;;;;;;11.77;70.49;100646.69;4429846;32;20076;-76
2021/05/12 06:42:25;;;;;;;4.05;3.85;;;;;;;13.04;69.81;100784.84;4419650;32;20462;-73
2021/05/12 06:44:51;;;;;;;4.00;3.80;;;;;;;13.32;68.95;100795.38;4421446;32;20073;-71
2021/05/12 06:47:16;;;;;;;4.20;4.00;;;;;;;13.24;67.82;100755.47;4416964;32;20075;-71
2021/05/12 06:49:41;;;;;;;3.92;3.80;;;;;;;13.73;67.47;100796.34;4405252;32;20068;-73
2021/05/12 06:52:07;;;;;;;3.80;3.70;;;;;;;13.93;66.35;100795.94;4434569;32;20587;-75
2021/05/12 06:54:32;;;;;;;4.20;4.00;;;;;;;13.53;66.50;100797.62;4410203;32;20072;-71
2021/05/12 06:56:58;;;;;;;4.37;4.18;;;;;;;13.47;66.09;100801.50;4416925;32;20093;-74
2021/05/12 06:59:23;;;;;;;4.35;4.15;;;;;;;13.41;66.56;100795.75;4416691;32;20091;-74
2021/05/12 07:01:48;;;;;;;4.35;4.15;;;;;;;13.15;67.83;100785.03;4414522;32;20087;-73
2021/05/12 07:04:14;;;;;;;3.92;3.80;;;;;;;13.61;66.79;100784.81;4422487;32;20572;-74
2021/05/12 07:06:39;;;;;;;3.70;3.60;;;;;;;13.63;65.80;100789.97;4416548;32;20080;-73
2021/05/12 07:09:04;;;;;;;4.20;4.00;;;;;;;14.06;64.50;100809.19;4425628;32;20153;-72
2021/05/12 07:11:30;;;;;;;3.92;3.80;;;;;;;13.59;65.80;100807.81;4418464;32;20159;-73
2021/05/12 07:13:55;;;;;;;4.28;4.07;;;;;;;13.67;65.84;100810.81;4418762;32;20090;-73
2021/05/12 07:16:21;;;;;;;4.10;3.90;;;;;;;13.79;65.24;100809.19;4417656;32;20095;-73
2021/05/12 07:18:46;;;;;;;4.20;4.00;;;;;;;13.49;66.70;100806.66;4410309;32;20186;-72
2021/05/12 07:21:11;;;;;;;4.15;3.95;;;;;;;13.50;66.09;100805.75;4410752;32;20875;-72
2021/05/12 07:23:39;;;;;;;4.20;4.00;;;;;;;14.01;65.37;100805.12;4425080;32;20072;-71
2021/05/12 07:26:04;;;;;;;4.28;4.07;;;;;;;14.27;63.26;100799.03;4414649;32;20092;-74
2021/05/12 07:28:30;;;;;;;4.78;4.47;;;;;;;14.18;63.81;100812.81;4414490;32;20068;-73
2021/05/12 07:30:55;;;;;;;4.30;4.10;;;;;;;14.72;63.38;100820.69;4409859;32;20084;-74
2021/05/12 07:33:20;;;;;;;4.53;4.32;;;;;;;14.05;64.62;100819.81;4416310;32;20092;-74
2021/05/12 07:35:47;;;;;;;4.20;4.00;;;;;;;14.27;64.32;100814.88;4415465;32;20064;-70
2021/05/12 07:38:12;;;;;;;4.60;4.40;;;;;;;14.42;63.80;100820.06;4415607;32;20091;-70
2021/05/12 07:40:37;;;;;;;4.50;4.30;;;;;;;14.45;64.28;100814.56;4411463;32;20090;-71
2021/05/12 07:43:06;;;;;;;4.57;4.37;;;;;;;14.55;63.45;100826.22;4415719;32;20606;-71
2021/05/12 07:45:32;;;;;;;4.22;4.03;;;;;;;13.79;65.36;100821.50;4414510;32;20301;-70
2021/05/12 07:47:57;;;;;;;4.45;4.20;;;;;;;13.82;66.43;100816.87;4416605;32;20525;-70
2021/05/12 07:50:23;;;;;;;4.40;4.20;;;;;;;14.20;65.17;100821.47;4415236;32;20080;-72
2021/05/12 07:52:48;;;;;;;4.40;4.20;;;;;;;14.86;64.16;100817.09;4414315;32;20174;-73
2021/05/12 07:55:13;;;;;;;4.40;4.20;;;;;;;15.19;62.00;100814.88;4421953;32;20106;-74
2021/05/12 07:57:41;;;;;;;4.37;4.18;;;;;;;14.78;63.64;100813.31;4406668;32;20761;-72
2021/05/12 08:00:07;;;;;;;4.20;4.00;;;;;;;14.74;62.90;100812.66;4409364;32;20091;-71
2021/05/12 08:02:33;;;;;;;4.32;4.12;;;;;;;15.30;62.30;100807.88;4418279;32;20072;-71
2021/05/12 08:04:58;;;;;;;4.82;4.62;;;;;;;14.66;63.72;100805.25;4418619;32;20071;-74
2021/05/12 08:07:24;;;;;;;4.37;4.18;;;;;;;15.19;61.76;100802.50;4425127;32;20088;-73
2021/05/12 08:09:49;;;;;;;4.40;4.20;;;;;;;15.26;60.38;100813.50;4413786;32;20072;-73
2021/05/12 08:12:14;;;;;;;4.50;4.30;;;;;;;15.25;62.08;100810.00;4414162;32;20069;-73
2021/05/12 08:14:40;;;;;;;5.40;5.12;;;;;;;15.57;61.04;100812.16;4413072;32;20070;-73
2021/05/12 08:17:05;;;;;;;4.78;4.57;;;;;;;15.38;60.78;100809.16;4424501;32;20589;-72
2021/05/12 08:19:31;;;;;;;4.40;4.20;;;;;;;15.16;61.82;100813.31;4414513;32;20480;-73
2021/05/12 08:21:56;;;;;;;4.40;4.20;;;;;;;14.78;61.71;100818.59;4416333;32;20632;-73
2021/05/12 08:24:21;;;;;;;4.25;4.05;;;;;;;14.88;63.94;100832.84;4416807;32;20092;-71
2021/05/12 08:26:47;;;;;;;4.35;4.15;;;;;;;15.33;60.02;100815.63;4411695;32;20076;-72
2021/05/12 08:29:14;;;;;;;4.45;4.25;;;;;;;15.30;61.42;100815.81;4425413;32;20091;-73
2021/05/12 08:31:40;;;;;;;4.50;4.30;;;;;;;15.64;59.28;100817.88;4414665;32;20629;-72
2021/05/12 08:34:06;;;;;;;4.47;4.28;;;;;;;15.81;59.28;100806.94;4415755;32;20138;-73
2021/05/12 08:36:32;;;;;;;4.60;4.40;;;;;;;15.64;59.01;100789.63;4417054;32;20087;-72
2021/05/12 08:38:58;;;;;;;4.90;4.60;;;;;;;15.59;60.61;100804.13;4414809;32;20092;-72
2021/05/12 08:41:23;;;;;;;4.50;4.30;;;;;;;15.56;60.79;100799.91;4414403;32;20076;-73
2021/05/12 08:43:48;;;;;;;4.30;4.10;;;;;;;15.55;60.00;100788.50;4415982;32;20708;-71
2021/05/12 08:46:14;;;;;;;4.60;4.40;;;;;;;15.66;59.76;100794.81;4415766;32;20102;-71
2021/05/12 08:48:41;;;;;;;4.20;4.00;;;;;;;15.65;60.56;100793.94;4417482;32;20068;-72
2021/05/12 08:51:07;;;;;;;4.20;4.00;;;;;;;15.56;59.48;100794.62;4416674;32;20745;-73
2021/05/12 08:53:32;;;;;;;4.57;4.37;;;;;;;15.52;59.66;100779.94;4418165;32;20052;-73
2021/05/12 08:55:58;;;;;;;4.50;4.30;;;;;;;15.94;59.17;100789.22;4418225;32;20137;-72
2021/05/12 08:58:23;;;;;;;4.82;4.60;;;;;;;15.36;58.92;100746.63;4418086;32;20089;-73
2021/05/12 09:00:49;;;;;;;4.50;4.30;;;;;;;15.75;59.24;100749.19;4417696;32;20170;-74
2021/05/12 09:03:14;;;;;;;4.40;4.20;;;;;;;16.60;57.26;100780.81;4415417;32;20074;-73
2021/05/12 09:05:40;;;;;;;5.07;4.78;;;;;;;17.44;54.23;100777.84;4417407;32;21857;-73
2021/05/12 09:08:05;;;;;;;4.57;4.37;;;;;;;17.49;54.45;100781.81;4423900;32;20095;-73
2021/05/12 09:10:30;;;;;;;4.62;4.43;;;;;;;16.21;57.36;100777.53;4419096;32;20538;-71
2021/05/12 09:12:57;;;;;;;4.85;4.65;;;;;;;16.89;56.68;100769.78;4409524;32;20064;-71
2021/05/12 09:15:23;;;;;;;4.60;4.40;;;;;;;17.02;54.04;100656.53;4419707;32;20075;-76
2021/05/12 09:17:49;;;;;;;5.18;4.87;;;;;;;17.78;55.31;100778.66;4418409;32;20661;-75
2021/05/12 09:20:24;;;;;;;6.18;5.87;;;;;;;17.52;53.81;100768.34;4418118;32;20170;-74
2021/05/12 09:22:59;;;;;;;4.87;4.60;;;;;;;16.53;56.05;100780.41;4450819;32;20186;-72
2021/05/12 09:25:24;;;;;;;4.80;4.60;;;;;;;16.59;57.06;100768.50;4444844;32;20093;-70
2021/05/12 09:27:51;;;;;;;4.53;4.32;;;;;;;17.97;54.91;100777.19;4419129;32;20061;-74
2021/05/12 09:30:23;;;;;;;5.00;4.80;;;;;;;18.11;53.25;100768.91;4418354;32;20064;-72
2021/05/12 09:32:49;;;;;;;4.50;4.30;;;;;;;18.68;52.84;100772.97;4420423;32;20152;-73
2021/05/12 09:35:15;;;;;;;5.25;4.95;;;;;;;19.45;50.52;100768.16;4427563;32;20064;-71
2021/05/12 09:37:44;;;;;;;4.80;4.60;;;;;;;18.78;49.64;100772.16;4428779;32;20603;-73
2021/05/12 09:40:10;;;;;;;4.95;4.75;;;;;;;18.58;50.20;100777.34;4417335;32;20077;-73
2021/05/12 09:42:37;;;;;;;5.05;4.85;;;;;;;18.26;51.61;100772.09;4429975;32;20081;-71
2021/05/12 09:45:21;;;;;;;5.45;5.05;;;;;;;17.69;52.13;100774.91;4417577;32;20769;-72
2021/05/12 09:47:57;;;;;;;5.00;4.80;;;;;;;17.20;54.49;100754.97;4432690;32;20937;-71
2021/05/12 09:50:29;;;;;;;5.10;4.80;;;;;;;17.39;52.84;100770.28;4426335;32;20073;-70
2021/05/12 09:52:56;;;;;;;5.12;4.85;;;;;;;17.24;54.48;100774.12;4416795;32;20117;-70
2021/05/12 09:55:35;;;;;;;5.20;4.90;;;;;;;17.79;52.45;100774.19;4416623;32;20082;-77
2021/05/12 09:58:08;;;;;;;4.93;4.72;;;;;;;18.01;51.37;100773.31;4433437;32;20068;-72
2021/05/12 10:00:35;;;;;;;4.80;4.60;;;;;;;18.20;50.63;100773.47;4416603;32;20116;-71
2021/05/12 10:03:01;;;;;;;4.80;4.60;;;;;;;18.39;50.12;100771.94;4417169;32;20073;-71
2021/05/12 10:05:26;;;;;;;5.05;4.65;;;;;;;18.25;49.04;100765.09;4415697;32;20096;-72
2021/05/12 10:07:57;;;;;;;4.82;4.62;;;;;;;17.80;50.42;100766.09;4414594;32;20095;-70
2021/05/12 10:10:39;;;;;;;4.62;4.43;;;;;;;18.51;49.99;100766.41;4415118;32;20073;-72
2021/05/12 10:13:04;;;;;;;4.53;4.32;;;;;;;18.78;48.42;100757.03;4415204;32;20145;-70
2021/05/12 10:15:30;;;;;;;5.05;4.70;;;;;;;18.11;50.00;100761.78;4418725;32;20060;-70
2021/05/12 10:17:55;;;;;;;4.82;4.62;;;;;;;18.55;49.55;100745.72;4417795;32;20488;-71
2021/05/12 10:20:21;;;;;;;5.28;5.03;;;;;;;17.58;50.16;100747.56;4417990;32;20525;-71
2021/05/12 10:22:46;;;;;;;5.10;4.90;;;;;;;17.98;51.49;100750.50;4427474;32;20586;-72
2021/05/12 10:25:11;;;;;;;4.75;4.55;;;;;;;17.85;48.98;100747.16;4416253;32;20080;-72
2021/05/12 10:27:37;;;;;;;4.80;4.60;;;;;;;17.84;47.87;100750.78;4414725;32;20627;-71
2021/05/12 10:30:03;;;;;;;5.07;4.82;;;;;;;18.29;48.97;100735.50;4418147;32;20088;-72
2021/05/12 10:32:36;;;;;;;4.80;4.60;;;;;;;18.80;48.83;100731.19;4420331;32;20159;-68
2021/05/12 10:35:12;;;;;;;5.15;4.87;;;;;;;18.87;48.08;100726.22;4410967;32;20073;-73
2021/05/12 10:37:42;;;;;;;4.82;4.62;;;;;;;18.93;46.98;100728.34;4414551;32;20577;-71
2021/05/12 10:40:23;;;;;;;4.65;4.45;;;;;;;18.40;47.81;100731.06;4420590;32;21570;-72
2021/05/12 10:45:32;;;;;;;4.65;4.45;;;;;;;19.02;45.93;100722.19;4450332;32;20060;-71
2021/05/12 10:47:57;;;;;;;4.68;4.47;;;;;;;19.30;44.82;100720.62;4444427;32;20064;-72
2021/05/12 10:50:42;;;;;;;4.60;4.40;;;;;;;18.97;43.85;100721.78;4420328;32;20083;-71
2021/05/12 10:53:15;;;;;;;4.90;4.70;;;;;;;18.61;46.20;100723.94;4426322;32;20218;-71
2021/05/12 10:55:59;;;;;;;4.70;4.50;;;;;;;17.80;47.10;100718.31;4427463;32;20073;-66
2021/05/12 10:58:51;;;;;;;5.22;4.93;;;;;;;18.22;46.71;100723.72;4422749;32;20673;-67
2021/05/12 11:01:17;;;;;;;4.75;4.55;;;;;;;18.32;45.78;100735.25;4409548;32;20064;-66
2021/05/12 11:03:49;;;;;;;4.50;4.30;;;;;;;18.66;43.84;100718.22;4420865;32;20578;-66
2021/05/12 11:06:18;;;;;;;4.60;4.40;;;;;;;19.19;43.58;100719.91;4425471;32;20975;-68
2021/05/12 11:09:02;;;;;;;4.65;4.45;;;;;;;18.37;42.58;100726.88;4417823;32;20973;-71
2021/05/12 11:11:27;;;;;;;4.87;4.68;;;;;;;17.91;41.58;100717.44;4431400;32;20210;-72
2021/05/12 11:14:19;;;;;;;4.50;4.30;;;;;;;18.24;42.99;100715.59;4409092;32;20146;-71
2021/05/12 11:17:05;;;;;;;4.60;4.40;;;;;;;18.92;43.86;100714.19;4412228;32;20581;-71
2021/05/12 11:19:35;;;;;;;4.70;4.50;;;;;;;19.19;40.96;100711.91;4444332;32;20732;-73
2021/05/12 11:22:32;;;;;;;4.70;4.50;;;;;;;18.51;43.57;100715.91;4416896;32;20084;-71
2021/05/12 11:25:09;;;;;;;4.60;4.40;;;;;;;18.01;44.64;100691.81;4425785;32;20179;-70